sensor_id;sensor_type;location;lat;lon;timestamp;temperature;humidity
72126;SHT31;59999;51.676;22.650;2023-12-07T00:01:04;0.08;88.48
72126;SHT31;59999;51.676;22.650;2023-12-07T00:03:32;0.07;88.27
72126;SHT31;59999;51.676;22.650;2023-12-07T00:05:58;0.11;88.50
72126;SHT31;59999;51.676;22.650;2023-12-07T00:08:24;0.07;87.99
72126;SHT31;59999;51.676;22.650;2023-12-07T00:10:50;0.11;88.32
72126;SHT31;59999;51.676;22.650;2023-12-07T00:13:15;0.08;88.28
72126;SHT31;59999;51.676;22.650;2023-12-07T00:15:42;0.08;88.54
72126;SHT31;59999;51.676;22.650;2023-12-07T00:18:08;0.10;88.39
72126;SHT31;59999;51.676;22.650;2023-12-07T00:20:34;0.13;88.17
72126;SHT31;59999;51.676;22.650;2023-12-07T00:23:00;0.08;88.21
72126;SHT31;59999;51.676;22.650;2023-12-07T00:25:26;0.08;88.36
72126;SHT31;59999;51.676;22.650;2023-12-07T00:27:52;0.07;88.30
72126;SHT31;59999;51.676;22.650;2023-12-07T00:30:18;0.13;88.33
72126;SHT31;59999;51.676;22.650;2023-12-07T00:32:43;0.10;88.31
72126;SHT31;59999;51.676;22.650;2023-12-07T00:35:10;0.08;88.28
72126;SHT31;59999;51.676;22.650;2023-12-07T00:37:35;0.10;88.47
72126;SHT31;59999;51.676;22.650;2023-12-07T00:40:02;0.07;88.26
72126;SHT31;59999;51.676;22.650;2023-12-07T00:42:29;0.08;88.38
72126;SHT31;59999;51.676;22.650;2023-12-07T00:44:55;0.10;88.22
72126;SHT31;59999;51.676;22.650;2023-12-07T00:47:21;0.07;88.41
72126;SHT31;59999;51.676;22.650;2023-12-07T00:49:47;0.04;88.47
72126;SHT31;59999;51.676;22.650;2023-12-07T00:52:13;0.03;88.71
72126;SHT31;59999;51.676;22.650;2023-12-07T00:54:39;0.01;88.98
72126;SHT31;59999;51.676;22.650;2023-12-07T00:57:06;0.05;88.80
72126;SHT31;59999;51.676;22.650;2023-12-07T00:59:32;0.01;88.87
72126;SHT31;59999;51.676;22.650;2023-12-07T01:02:05;0.05;88.66
72126;SHT31;59999;51.676;22.650;2023-12-07T01:04:32;0.01;88.89
72126;SHT31;59999;51.676;22.650;2023-12-07T01:06:58;-0.02;89.12
72126;SHT31;59999;51.676;22.650;2023-12-07T01:09:24;-0.03;89.17
72126;SHT31;59999;51.676;22.650;2023-12-07T01:11:50;0.07;88.71
72126;SHT31;59999;51.676;22.650;2023-12-07T01:14:17;0.04;88.85
72126;SHT31;59999;51.676;22.650;2023-12-07T01:16:43;0.05;88.85
72126;SHT31;59999;51.676;22.650;2023-12-07T01:19:10;0.04;88.98
72126;SHT31;59999;51.676;22.650;2023-12-07T01:21:35;0.03;89.02
72126;SHT31;59999;51.676;22.650;2023-12-07T01:24:01;0.01;88.99
72126;SHT31;59999;51.676;22.650;2023-12-07T01:26:27;0.01;88.99
72126;SHT31;59999;51.676;22.650;2023-12-07T01:28:53;0.04;89.09
72126;SHT31;59999;51.676;22.650;2023-12-07T01:31:19;0.04;88.95
72126;SHT31;59999;51.676;22.650;2023-12-07T01:33:45;0.05;88.88
72126;SHT31;59999;51.676;22.650;2023-12-07T01:36:11;0.04;88.90
72126;SHT31;59999;51.676;22.650;2023-12-07T01:38:37;0.04;88.62
72126;SHT31;59999;51.676;22.650;2023-12-07T01:41:03;0.05;88.77
72126;SHT31;59999;51.676;22.650;2023-12-07T01:43:29;-0.03;88.89
72126;SHT31;59999;51.676;22.650;2023-12-07T01:45:56;-0.02;89.17
72126;SHT31;59999;51.676;22.650;2023-12-07T01:48:23;-0.02;88.90
72126;SHT31;59999;51.676;22.650;2023-12-07T01:50:49;-0.02;89.05
72126;SHT31;59999;51.676;22.650;2023-12-07T01:53:16;-0.05;89.22
72126;SHT31;59999;51.676;22.650;2023-12-07T01:55:42;-0.05;89.29
72126;SHT31;59999;51.676;22.650;2023-12-07T01:58:09;-0.06;89.38
72126;SHT31;59999;51.676;22.650;2023-12-07T02:00:35;-0.03;89.33
72126;SHT31;59999;51.676;22.650;2023-12-07T02:03:04;0.01;89.04
72126;SHT31;59999;51.676;22.650;2023-12-07T02:05:31;-0.03;89.01
72126;SHT31;59999;51.676;22.650;2023-12-07T02:07:57;-0.03;89.16
72126;SHT31;59999;51.676;22.650;2023-12-07T02:10:24;0.01;89.16
72126;SHT31;59999;51.676;22.650;2023-12-07T02:12:51;-0.03;88.93
72126;SHT31;59999;51.676;22.650;2023-12-07T02:15:19;-0.05;88.92
72126;SHT31;59999;51.676;22.650;2023-12-07T02:18:03;-0.07;89.10
72126;SHT31;59999;51.676;22.650;2023-12-07T02:23:17;-0.02;89.14
72126;SHT31;59999;51.676;22.650;2023-12-07T02:25:53;0.01;89.25
72126;SHT31;59999;51.676;22.650;2023-12-07T02:28:20;0.00;88.82
72126;SHT31;59999;51.676;22.650;2023-12-07T02:30:46;-0.03;88.87
72126;SHT31;59999;51.676;22.650;2023-12-07T02:33:12;-0.06;89.08
72126;SHT31;59999;51.676;22.650;2023-12-07T02:35:39;-0.05;89.33
72126;SHT31;59999;51.676;22.650;2023-12-07T02:38:07;-0.06;89.28
72126;SHT31;59999;51.676;22.650;2023-12-07T02:40:34;-0.05;89.39
72126;SHT31;59999;51.676;22.650;2023-12-07T02:43:01;-0.07;89.35
72126;SHT31;59999;51.676;22.650;2023-12-07T02:45:27;-0.07;89.34
72126;SHT31;59999;51.676;22.650;2023-12-07T02:47:53;-0.03;89.32
72126;SHT31;59999;51.676;22.650;2023-12-07T02:50:19;-0.03;89.28
72126;SHT31;59999;51.676;22.650;2023-12-07T02:52:46;-0.05;89.08
72126;SHT31;59999;51.676;22.650;2023-12-07T02:55:11;-0.03;89.13
72126;SHT31;59999;51.676;22.650;2023-12-07T02:57:37;-0.05;89.03
72126;SHT31;59999;51.676;22.650;2023-12-07T03:00:04;-0.07;89.01
72126;SHT31;59999;51.676;22.650;2023-12-07T03:02:36;-0.11;89.25
72126;SHT31;59999;51.676;22.650;2023-12-07T03:05:02;-0.10;89.34
72126;SHT31;59999;51.676;22.650;2023-12-07T03:07:29;-0.07;89.24
72126;SHT31;59999;51.676;22.650;2023-12-07T03:09:55;-0.09;89.38
72126;SHT31;59999;51.676;22.650;2023-12-07T03:12:21;-0.11;89.30
72126;SHT31;59999;51.676;22.650;2023-12-07T03:14:48;-0.13;89.38
72126;SHT31;59999;51.676;22.650;2023-12-07T03:17:14;-0.14;89.53
72126;SHT31;59999;51.676;22.650;2023-12-07T03:19:41;-0.11;89.45
72126;SHT31;59999;51.676;22.650;2023-12-07T03:22:07;-0.11;89.54
72126;SHT31;59999;51.676;22.650;2023-12-07T03:24:35;-0.05;89.37
72126;SHT31;59999;51.676;22.650;2023-12-07T03:27:02;-0.07;89.05
72126;SHT31;59999;51.676;22.650;2023-12-07T03:29:28;-0.16;89.30
72126;SHT31;59999;51.676;22.650;2023-12-07T03:31:54;-0.13;89.42
72126;SHT31;59999;51.676;22.650;2023-12-07T03:34:19;-0.11;89.45
72126;SHT31;59999;51.676;22.650;2023-12-07T03:36:46;-0.11;89.56
72126;SHT31;59999;51.676;22.650;2023-12-07T03:39:13;-0.16;89.45
72126;SHT31;59999;51.676;22.650;2023-12-07T03:41:39;-0.21;89.61
72126;SHT31;59999;51.676;22.650;2023-12-07T03:44:05;-0.20;90.01
72126;SHT31;59999;51.676;22.650;2023-12-07T03:46:31;-0.21;89.90
72126;SHT31;59999;51.676;22.650;2023-12-07T03:48:57;-0.23;90.01
72126;SHT31;59999;51.676;22.650;2023-12-07T03:51:23;-0.24;90.16
72126;SHT31;59999;51.676;22.650;2023-12-07T03:53:48;-0.27;90.23
72126;SHT31;59999;51.676;22.650;2023-12-07T03:56:29;-0.27;90.44
72126;SHT31;59999;51.676;22.650;2023-12-07T03:58:55;-0.26;90.30
72126;SHT31;59999;51.676;22.650;2023-12-07T04:01:23;-0.27;90.27
72126;SHT31;59999;51.676;22.650;2023-12-07T04:03:49;-0.21;90.41
72126;SHT31;59999;51.676;22.650;2023-12-07T04:06:15;-0.27;90.29
72126;SHT31;59999;51.676;22.650;2023-12-07T04:08:42;-0.28;90.30
72126;SHT31;59999;51.676;22.650;2023-12-07T04:11:08;-0.33;90.52
72126;SHT31;59999;51.676;22.650;2023-12-07T04:13:34;-0.34;90.71
72126;SHT31;59999;51.676;22.650;2023-12-07T04:15:59;-0.38;90.66
72126;SHT31;59999;51.676;22.650;2023-12-07T04:18:25;-0.33;90.72
72126;SHT31;59999;51.676;22.650;2023-12-07T04:20:51;-0.34;90.64
72126;SHT31;59999;51.676;22.650;2023-12-07T04:23:17;-0.31;90.73
72126;SHT31;59999;51.676;22.650;2023-12-07T04:25:43;-0.36;90.28
72126;SHT31;59999;51.676;22.650;2023-12-07T04:28:08;-0.30;90.35
72126;SHT31;59999;51.676;22.650;2023-12-07T04:30:35;-0.27;90.16
72126;SHT31;59999;51.676;22.650;2023-12-07T04:33:00;-0.28;90.12
72126;SHT31;59999;51.676;22.650;2023-12-07T04:35:27;-0.30;89.75
72126;SHT31;59999;51.676;22.650;2023-12-07T04:37:54;-0.31;90.03
72126;SHT31;59999;51.676;22.650;2023-12-07T04:40:20;-0.31;90.00
72126;SHT31;59999;51.676;22.650;2023-12-07T04:42:45;-0.34;90.04
72126;SHT31;59999;51.676;22.650;2023-12-07T04:45:11;-0.36;89.90
72126;SHT31;59999;51.676;22.650;2023-12-07T04:47:37;-0.37;89.93
72126;SHT31;59999;51.676;22.650;2023-12-07T04:50:03;-0.34;89.83
72126;SHT31;59999;51.676;22.650;2023-12-07T04:52:29;-0.31;90.01
72126;SHT31;59999;51.676;22.650;2023-12-07T04:54:55;-0.31;89.75
72126;SHT31;59999;51.676;22.650;2023-12-07T04:57:21;-0.31;89.47
72126;SHT31;59999;51.676;22.650;2023-12-07T04:59:47;-0.30;89.60
72126;SHT31;59999;51.676;22.650;2023-12-07T05:02:16;-0.30;89.79
72126;SHT31;59999;51.676;22.650;2023-12-07T05:04:45;-0.33;89.59
72126;SHT31;59999;51.676;22.650;2023-12-07T05:07:11;-0.34;89.72
72126;SHT31;59999;51.676;22.650;2023-12-07T05:09:38;-0.38;89.72
72126;SHT31;59999;51.676;22.650;2023-12-07T05:12:05;-0.36;89.72
72126;SHT31;59999;51.676;22.650;2023-12-07T05:14:31;-0.40;89.59
72126;SHT31;59999;51.676;22.650;2023-12-07T05:16:57;-0.36;89.46
72126;SHT31;59999;51.676;22.650;2023-12-07T05:19:23;-0.30;89.24
72126;SHT31;59999;51.676;22.650;2023-12-07T05:21:49;-0.30;89.07
72126;SHT31;59999;51.676;22.650;2023-12-07T05:24:15;-0.33;89.04
72126;SHT31;59999;51.676;22.650;2023-12-07T05:26:41;-0.34;89.16
72126;SHT31;59999;51.676;22.650;2023-12-07T05:29:07;-0.37;89.10
72126;SHT31;59999;51.676;22.650;2023-12-07T05:31:33;-0.38;89.41
72126;SHT31;59999;51.676;22.650;2023-12-07T05:33:59;-0.42;89.48
72126;SHT31;59999;51.676;22.650;2023-12-07T05:36:24;-0.37;89.57
72126;SHT31;59999;51.676;22.650;2023-12-07T05:38:52;-0.38;89.26
72126;SHT31;59999;51.676;22.650;2023-12-07T05:41:17;-0.37;89.05
72126;SHT31;59999;51.676;22.650;2023-12-07T05:43:43;-0.40;89.01
72126;SHT31;59999;51.676;22.650;2023-12-07T05:46:09;-0.38;89.27
72126;SHT31;59999;51.676;22.650;2023-12-07T05:48:35;-0.41;89.21
72126;SHT31;59999;51.676;22.650;2023-12-07T05:51:04;-0.38;89.35
72126;SHT31;59999;51.676;22.650;2023-12-07T05:53:30;-0.41;89.07
72126;SHT31;59999;51.676;22.650;2023-12-07T05:55:58;-0.41;89.14
72126;SHT31;59999;51.676;22.650;2023-12-07T05:58:24;-0.45;89.38
72126;SHT31;59999;51.676;22.650;2023-12-07T06:00:50;-0.51;89.60
72126;SHT31;59999;51.676;22.650;2023-12-07T06:03:16;-0.44;89.52
72126;SHT31;59999;51.676;22.650;2023-12-07T06:05:42;-0.41;89.07
72126;SHT31;59999;51.676;22.650;2023-12-07T06:08:09;-0.42;89.20
72126;SHT31;59999;51.676;22.650;2023-12-07T06:10:34;-0.41;89.12
72126;SHT31;59999;51.676;22.650;2023-12-07T06:13:01;-0.47;89.27
72126;SHT31;59999;51.676;22.650;2023-12-07T06:15:27;-0.47;89.41
72126;SHT31;59999;51.676;22.650;2023-12-07T06:17:54;-0.50;89.50
72126;SHT31;59999;51.676;22.650;2023-12-07T06:20:20;-0.50;89.64
72126;SHT31;59999;51.676;22.650;2023-12-07T06:22:46;-0.51;89.72
72126;SHT31;59999;51.676;22.650;2023-12-07T06:25:12;-0.48;89.63
72126;SHT31;59999;51.676;22.650;2023-12-07T06:27:38;-0.51;89.57
72126;SHT31;59999;51.676;22.650;2023-12-07T06:30:05;-0.48;89.42
72126;SHT31;59999;51.676;22.650;2023-12-07T06:32:34;-0.48;89.47
72126;SHT31;59999;51.676;22.650;2023-12-07T06:35:01;-0.50;89.57
72126;SHT31;59999;51.676;22.650;2023-12-07T06:37:27;-0.45;89.34
72126;SHT31;59999;51.676;22.650;2023-12-07T06:39:52;-0.48;89.39
72126;SHT31;59999;51.676;22.650;2023-12-07T06:42:18;-0.48;89.34
72126;SHT31;59999;51.676;22.650;2023-12-07T06:44:47;-0.38;88.93
72126;SHT31;59999;51.676;22.650;2023-12-07T06:47:15;-0.45;88.99
72126;SHT31;59999;51.676;22.650;2023-12-07T06:49:41;-0.42;88.86
72126;SHT31;59999;51.676;22.650;2023-12-07T06:52:07;-0.44;88.83
72126;SHT31;59999;51.676;22.650;2023-12-07T06:54:33;-0.44;88.88
72126;SHT31;59999;51.676;22.650;2023-12-07T06:57:00;-0.42;88.44
72126;SHT31;59999;51.676;22.650;2023-12-07T06:59:25;-0.41;88.05
72126;SHT31;59999;51.676;22.650;2023-12-07T07:01:51;-0.41;88.25
72126;SHT31;59999;51.676;22.650;2023-12-07T07:04:17;-0.37;88.37
72126;SHT31;59999;51.676;22.650;2023-12-07T07:06:44;-0.37;88.20
72126;SHT31;59999;51.676;22.650;2023-12-07T07:09:10;-0.37;88.00
72126;SHT31;59999;51.676;22.650;2023-12-07T07:11:36;-0.36;87.97
72126;SHT31;59999;51.676;22.650;2023-12-07T07:14:02;-0.34;88.01
72126;SHT31;59999;51.676;22.650;2023-12-07T07:16:28;-0.31;88.17
72126;SHT31;59999;51.676;22.650;2023-12-07T07:18:54;-0.28;87.62
72126;SHT31;59999;51.676;22.650;2023-12-07T07:21:19;-0.28;87.20
72126;SHT31;59999;51.676;22.650;2023-12-07T07:23:45;-0.31;87.38
72126;SHT31;59999;51.676;22.650;2023-12-07T07:26:11;-0.28;87.40
72126;SHT31;59999;51.676;22.650;2023-12-07T07:28:45;-0.30;87.20
72126;SHT31;59999;51.676;22.650;2023-12-07T07:31:11;-0.31;87.27
72126;SHT31;59999;51.676;22.650;2023-12-07T07:33:36;-0.31;87.17
72126;SHT31;59999;51.676;22.650;2023-12-07T07:36:03;-0.30;86.86
72126;SHT31;59999;51.676;22.650;2023-12-07T07:38:29;-0.31;86.97
72126;SHT31;59999;51.676;22.650;2023-12-07T07:40:55;-0.30;86.99
72126;SHT31;59999;51.676;22.650;2023-12-07T07:43:20;-0.34;87.31
72126;SHT31;59999;51.676;22.650;2023-12-07T07:45:46;-0.34;87.16
72126;SHT31;59999;51.676;22.650;2023-12-07T07:48:12;-0.34;87.21
72126;SHT31;59999;51.676;22.650;2023-12-07T07:50:38;-0.33;86.99
72126;SHT31;59999;51.676;22.650;2023-12-07T07:53:03;-0.33;87.04
72126;SHT31;59999;51.676;22.650;2023-12-07T07:55:30;-0.30;86.69
72126;SHT31;59999;51.676;22.650;2023-12-07T07:57:56;-0.34;86.77
72126;SHT31;59999;51.676;22.650;2023-12-07T08:00:22;-0.34;86.99
72126;SHT31;59999;51.676;22.650;2023-12-07T08:02:51;-0.31;86.62
72126;SHT31;59999;51.676;22.650;2023-12-07T08:05:17;-0.33;86.66
72126;SHT31;59999;51.676;22.650;2023-12-07T08:07:43;-0.30;86.19
72126;SHT31;59999;51.676;22.650;2023-12-07T08:10:09;-0.31;86.33
72126;SHT31;59999;51.676;22.650;2023-12-07T08:12:35;-0.28;85.83
72126;SHT31;59999;51.676;22.650;2023-12-07T08:15:01;-0.33;86.19
72126;SHT31;59999;51.676;22.650;2023-12-07T08:17:27;-0.34;86.61
72126;SHT31;59999;51.676;22.650;2023-12-07T08:19:53;-0.30;86.40
72126;SHT31;59999;51.676;22.650;2023-12-07T08:22:18;-0.30;86.27
72126;SHT31;59999;51.676;22.650;2023-12-07T08:24:45;-0.30;86.43
72126;SHT31;59999;51.676;22.650;2023-12-07T08:27:11;-0.30;86.13
72126;SHT31;59999;51.676;22.650;2023-12-07T08:29:37;-0.28;85.72
72126;SHT31;59999;51.676;22.650;2023-12-07T08:32:03;-0.24;85.74
72126;SHT31;59999;51.676;22.650;2023-12-07T08:34:29;-0.24;85.17
72126;SHT31;59999;51.676;22.650;2023-12-07T08:36:55;-0.23;85.11
72126;SHT31;59999;51.676;22.650;2023-12-07T08:39:21;-0.21;85.32
72126;SHT31;59999;51.676;22.650;2023-12-07T08:41:47;-0.16;84.87
72126;SHT31;59999;51.676;22.650;2023-12-07T08:44:12;-0.13;84.21
72126;SHT31;59999;51.676;22.650;2023-12-07T08:46:38;-0.07;83.88
72126;SHT31;59999;51.676;22.650;2023-12-07T08:49:04;-0.02;83.11
72126;SHT31;59999;51.676;22.650;2023-12-07T08:51:30;-0.03;82.98
72126;SHT31;59999;51.676;22.650;2023-12-07T08:53:55;0.05;82.82
72126;SHT31;59999;51.676;22.650;2023-12-07T08:56:21;0.10;81.91
72126;SHT31;59999;51.676;22.650;2023-12-07T08:58:47;0.07;82.21
72126;SHT31;59999;51.676;22.650;2023-12-07T09:01:13;0.13;81.74
72126;SHT31;59999;51.676;22.650;2023-12-07T09:03:39;0.17;81.99
72126;SHT31;59999;51.676;22.650;2023-12-07T09:06:07;0.19;81.06
72126;SHT31;59999;51.676;22.650;2023-12-07T09:08:34;0.25;80.82
72126;SHT31;59999;51.676;22.650;2023-12-07T09:10:59;0.29;80.95
72126;SHT31;59999;51.676;22.650;2023-12-07T09:13:25;0.29;80.79
72126;SHT31;59999;51.676;22.650;2023-12-07T09:15:51;0.32;80.71
72126;SHT31;59999;51.676;22.650;2023-12-07T09:18:17;0.35;80.48
72126;SHT31;59999;51.676;22.650;2023-12-07T09:20:42;0.40;80.40
72126;SHT31;59999;51.676;22.650;2023-12-07T09:23:14;0.41;80.29
72126;SHT31;59999;51.676;22.650;2023-12-07T09:25:43;0.48;80.30
72126;SHT31;59999;51.676;22.650;2023-12-07T09:28:10;0.48;79.55
72126;SHT31;59999;51.676;22.650;2023-12-07T09:30:35;0.46;79.91
72126;SHT31;59999;51.676;22.650;2023-12-07T09:33:01;0.48;79.96
72126;SHT31;59999;51.676;22.650;2023-12-07T09:35:30;0.48;79.56
72126;SHT31;59999;51.676;22.650;2023-12-07T09:37:56;0.40;79.54
72126;SHT31;59999;51.676;22.650;2023-12-07T09:40:22;0.37;80.03
72126;SHT31;59999;51.676;22.650;2023-12-07T09:42:49;0.32;80.10
72126;SHT31;59999;51.676;22.650;2023-12-07T09:45:16;0.32;79.90
72126;SHT31;59999;51.676;22.650;2023-12-07T09:47:47;0.34;80.16
72126;SHT31;59999;51.676;22.650;2023-12-07T09:50:16;0.31;80.07
72126;SHT31;59999;51.676;22.650;2023-12-07T09:52:43;0.31;80.53
72126;SHT31;59999;51.676;22.650;2023-12-07T09:55:09;0.35;80.15
72126;SHT31;59999;51.676;22.650;2023-12-07T09:57:37;0.32;80.00
72126;SHT31;59999;51.676;22.650;2023-12-07T10:00:04;0.34;79.37
72126;SHT31;59999;51.676;22.650;2023-12-07T10:02:30;0.32;79.28
72126;SHT31;59999;51.676;22.650;2023-12-07T10:05:06;0.29;80.25
72126;SHT31;59999;51.676;22.650;2023-12-07T10:07:33;0.31;80.95
72126;SHT31;59999;51.676;22.650;2023-12-07T10:10:04;0.32;80.43
72126;SHT31;59999;51.676;22.650;2023-12-07T10:12:34;0.37;79.87
72126;SHT31;59999;51.676;22.650;2023-12-07T10:15:01;0.35;80.36
72126;SHT31;59999;51.676;22.650;2023-12-07T10:17:47;0.38;80.57
72126;SHT31;59999;51.676;22.650;2023-12-07T10:20:20;0.38;80.72
72126;SHT31;59999;51.676;22.650;2023-12-07T10:23:01;0.44;80.95
72126;SHT31;59999;51.676;22.650;2023-12-07T10:25:41;0.46;80.56
72126;SHT31;59999;51.676;22.650;2023-12-07T10:28:08;0.51;80.96
72126;SHT31;59999;51.676;22.650;2023-12-07T10:30:35;0.53;80.27
72126;SHT31;59999;51.676;22.650;2023-12-07T10:33:06;0.56;81.03
72126;SHT31;59999;51.676;22.650;2023-12-07T10:35:33;0.59;80.53
72126;SHT31;59999;51.676;22.650;2023-12-07T10:38:03;0.58;80.59
72126;SHT31;59999;51.676;22.650;2023-12-07T10:40:29;0.59;80.67
72126;SHT31;59999;51.676;22.650;2023-12-07T10:42:57;0.63;80.38
72126;SHT31;59999;51.676;22.650;2023-12-07T10:45:29;0.63;80.53
72126;SHT31;59999;51.676;22.650;2023-12-07T10:47:59;0.61;80.01
72126;SHT31;59999;51.676;22.650;2023-12-07T10:50:31;0.58;79.96
72126;SHT31;59999;51.676;22.650;2023-12-07T10:53:07;0.59;79.89
72126;SHT31;59999;51.676;22.650;2023-12-07T10:55:41;0.55;79.88
72126;SHT31;59999;51.676;22.650;2023-12-07T10:58:09;0.49;80.16
72126;SHT31;59999;51.676;22.650;2023-12-07T11:00:36;0.51;80.63
72126;SHT31;59999;51.676;22.650;2023-12-07T11:03:02;0.46;81.10
72126;SHT31;59999;51.676;22.650;2023-12-07T11:05:29;0.49;81.24
72126;SHT31;59999;51.676;22.650;2023-12-07T11:08:06;0.49;80.86
72126;SHT31;59999;51.676;22.650;2023-12-07T11:10:34;0.48;80.39
72126;SHT31;59999;51.676;22.650;2023-12-07T11:13:29;0.48;80.86
72126;SHT31;59999;51.676;22.650;2023-12-07T11:15:56;0.49;80.72
72126;SHT31;59999;51.676;22.650;2023-12-07T11:18:25;0.45;81.20
72126;SHT31;59999;51.676;22.650;2023-12-07T11:20:52;0.48;80.86
72126;SHT31;59999;51.676;22.650;2023-12-07T11:23:18;0.42;80.88
72126;SHT31;59999;51.676;22.650;2023-12-07T11:25:45;0.44;80.48
72126;SHT31;59999;51.676;22.650;2023-12-07T11:28:11;0.42;79.89
72126;SHT31;59999;51.676;22.650;2023-12-07T11:30:38;0.41;79.24
72126;SHT31;59999;51.676;22.650;2023-12-07T11:33:06;0.40;78.84
72126;SHT31;59999;51.676;22.650;2023-12-07T11:35:33;0.42;78.99
72126;SHT31;59999;51.676;22.650;2023-12-07T11:38:08;0.44;79.47
72126;SHT31;59999;51.676;22.650;2023-12-07T11:40:41;0.42;78.79
72126;SHT31;59999;51.676;22.650;2023-12-07T11:43:07;0.41;78.58
72126;SHT31;59999;51.676;22.650;2023-12-07T11:45:47;0.40;78.64
72126;SHT31;59999;51.676;22.650;2023-12-07T11:48:14;0.34;78.40
72126;SHT31;59999;51.676;22.650;2023-12-07T11:50:58;0.26;78.38
72126;SHT31;59999;51.676;22.650;2023-12-07T11:53:34;0.22;78.91
72126;SHT31;59999;51.676;22.650;2023-12-07T11:56:02;0.22;78.29
72126;SHT31;59999;51.676;22.650;2023-12-07T11:58:30;0.17;78.77
72126;SHT31;59999;51.676;22.650;2023-12-07T12:00:56;0.15;78.21
72126;SHT31;59999;51.676;22.650;2023-12-07T12:03:26;0.11;78.53
72126;SHT31;59999;51.676;22.650;2023-12-07T12:05:52;0.10;78.55
72126;SHT31;59999;51.676;22.650;2023-12-07T12:08:18;0.03;78.89
72126;SHT31;59999;51.676;22.650;2023-12-07T12:10:45;0.05;78.58
72126;SHT31;59999;51.676;22.650;2023-12-07T12:13:12;0.03;78.55
72126;SHT31;59999;51.676;22.650;2023-12-07T12:15:39;0.04;78.21
72126;SHT31;59999;51.676;22.650;2023-12-07T12:18:05;0.04;78.18
72126;SHT31;59999;51.676;22.650;2023-12-07T12:20:32;0.04;78.44
72126;SHT31;59999;51.676;22.650;2023-12-07T12:22:58;0.05;78.53
72126;SHT31;59999;51.676;22.650;2023-12-07T12:25:30;-0.02;78.52
72126;SHT31;59999;51.676;22.650;2023-12-07T12:28:05;-0.02;78.43
72126;SHT31;59999;51.676;22.650;2023-12-07T12:30:32;-0.03;78.57
72126;SHT31;59999;51.676;22.650;2023-12-07T12:32:59;-0.03;78.79
72126;SHT31;59999;51.676;22.650;2023-12-07T12:35:28;-0.05;78.41
72126;SHT31;59999;51.676;22.650;2023-12-07T12:37:54;-0.07;79.05
72126;SHT31;59999;51.676;22.650;2023-12-07T12:40:23;-0.09;78.09
72126;SHT31;59999;51.676;22.650;2023-12-07T12:42:52;-0.07;78.40
72126;SHT31;59999;51.676;22.650;2023-12-07T12:45:19;0.00;77.88
72126;SHT31;59999;51.676;22.650;2023-12-07T12:47:46;-0.06;78.18
72126;SHT31;59999;51.676;22.650;2023-12-07T12:50:32;-0.09;78.02
72126;SHT31;59999;51.676;22.650;2023-12-07T12:52:59;-0.11;78.62
72126;SHT31;59999;51.676;22.650;2023-12-07T12:55:26;-0.09;77.95
72126;SHT31;59999;51.676;22.650;2023-12-07T12:57:52;-0.10;77.99
72126;SHT31;59999;51.676;22.650;2023-12-07T13:00:18;-0.11;78.07
72126;SHT31;59999;51.676;22.650;2023-12-07T13:02:44;-0.10;78.23
72126;SHT31;59999;51.676;22.650;2023-12-07T13:05:10;-0.16;78.43
72126;SHT31;59999;51.676;22.650;2023-12-07T13:07:36;-0.11;78.35
72126;SHT31;59999;51.676;22.650;2023-12-07T13:10:02;-0.10;77.75
72126;SHT31;59999;51.676;22.650;2023-12-07T13:12:28;-0.10;77.96
72126;SHT31;59999;51.676;22.650;2023-12-07T13:14:55;-0.07;77.65
72126;SHT31;59999;51.676;22.650;2023-12-07T13:17:21;-0.09;77.65
72126;SHT31;59999;51.676;22.650;2023-12-07T13:19:48;-0.14;78.05
72126;SHT31;59999;51.676;22.650;2023-12-07T13:22:14;-0.18;78.23
72126;SHT31;59999;51.676;22.650;2023-12-07T13:24:40;-0.16;78.24
72126;SHT31;59999;51.676;22.650;2023-12-07T13:27:05;-0.16;78.02
72126;SHT31;59999;51.676;22.650;2023-12-07T13:29:31;-0.18;77.85
72126;SHT31;59999;51.676;22.650;2023-12-07T13:31:57;-0.17;77.53
72126;SHT31;59999;51.676;22.650;2023-12-07T13:34:24;-0.21;77.41
72126;SHT31;59999;51.676;22.650;2023-12-07T13:36:51;-0.27;77.40
72126;SHT31;59999;51.676;22.650;2023-12-07T13:39:18;-0.34;77.92
72126;SHT31;59999;51.676;22.650;2023-12-07T13:41:46;-0.38;78.15
72126;SHT31;59999;51.676;22.650;2023-12-07T13:44:16;-0.40;78.13
72126;SHT31;59999;51.676;22.650;2023-12-07T13:46:43;-0.45;78.53
72126;SHT31;59999;51.676;22.650;2023-12-07T13:49:10;-0.47;78.56
72126;SHT31;59999;51.676;22.650;2023-12-07T13:51:37;-0.48;78.56
72126;SHT31;59999;51.676;22.650;2023-12-07T13:54:03;-0.51;79.07
72126;SHT31;59999;51.676;22.650;2023-12-07T13:56:29;-0.47;78.70
72126;SHT31;59999;51.676;22.650;2023-12-07T13:58:55;-0.44;78.88
72126;SHT31;59999;51.676;22.650;2023-12-07T14:01:21;-0.45;78.83
72126;SHT31;59999;51.676;22.650;2023-12-07T14:03:47;-0.47;78.62
72126;SHT31;59999;51.676;22.650;2023-12-07T14:06:24;-0.47;78.78
72126;SHT31;59999;51.676;22.650;2023-12-07T14:08:51;-0.53;78.84
72126;SHT31;59999;51.676;22.650;2023-12-07T14:11:17;-0.51;78.58
72126;SHT31;59999;51.676;22.650;2023-12-07T14:13:44;-0.51;78.59
72126;SHT31;59999;51.676;22.650;2023-12-07T14:16:12;-0.58;78.77
72126;SHT31;59999;51.676;22.650;2023-12-07T14:18:38;-0.62;78.83
72126;SHT31;59999;51.676;22.650;2023-12-07T14:21:04;-0.61;79.10
72126;SHT31;59999;51.676;22.650;2023-12-07T14:23:30;-0.74;79.26
72126;SHT31;59999;51.676;22.650;2023-12-07T14:25:55;-0.75;79.75
72126;SHT31;59999;51.676;22.650;2023-12-07T14:28:25;-0.75;79.76
72126;SHT31;59999;51.676;22.650;2023-12-07T14:30:50;-0.75;79.43
72126;SHT31;59999;51.676;22.650;2023-12-07T14:33:23;-0.75;79.67
72126;SHT31;59999;51.676;22.650;2023-12-07T14:35:48;-0.79;79.64
72126;SHT31;59999;51.676;22.650;2023-12-07T14:38:15;-0.86;80.05
72126;SHT31;59999;51.676;22.650;2023-12-07T14:40:40;-0.86;79.97
72126;SHT31;59999;51.676;22.650;2023-12-07T14:43:06;-0.82;79.98
72126;SHT31;59999;51.676;22.650;2023-12-07T14:45:32;-0.84;79.69
72126;SHT31;59999;51.676;22.650;2023-12-07T14:47:58;-0.86;79.36
72126;SHT31;59999;51.676;22.650;2023-12-07T14:50:24;-0.88;79.46
72126;SHT31;59999;51.676;22.650;2023-12-07T14:52:50;-0.95;79.62
72126;SHT31;59999;51.676;22.650;2023-12-07T14:55:15;-0.99;79.86
72126;SHT31;59999;51.676;22.650;2023-12-07T14:57:41;-0.99;80.04
72126;SHT31;59999;51.676;22.650;2023-12-07T15:00:07;-0.97;79.44
72126;SHT31;59999;51.676;22.650;2023-12-07T15:02:34;-0.99;79.82
72126;SHT31;59999;51.676;22.650;2023-12-07T15:05:00;-1.03;80.02
72126;SHT31;59999;51.676;22.650;2023-12-07T15:07:25;-1.07;80.20
72126;SHT31;59999;51.676;22.650;2023-12-07T15:09:51;-1.09;80.17
72126;SHT31;59999;51.676;22.650;2023-12-07T15:12:17;-1.09;80.14
72126;SHT31;59999;51.676;22.650;2023-12-07T15:14:45;-1.07;80.34
72126;SHT31;59999;51.676;22.650;2023-12-07T15:17:11;-1.03;80.15
72126;SHT31;59999;51.676;22.650;2023-12-07T15:19:37;-1.00;80.09
72126;SHT31;59999;51.676;22.650;2023-12-07T15:22:04;-1.00;79.94